sensor_id;sensor_type;location;lat;lon;timestamp;temperature;humidity
19340;HTU21D;9804;52.350;6.684;2023-02-26T00:00:12;3.88;-6.00
19340;HTU21D;9804;52.350;6.684;2023-02-26T00:02:40;3.86;-6.00
19340;HTU21D;9804;52.350;6.684;2023-02-26T00:05:06;3.78;-6.00
19340;HTU21D;9804;52.350;6.684;2023-02-26T00:07:32;3.84;-6.00
19340;HTU21D;9804;52.350;6.684;2023-02-26T00:09:58;3.87;-6.00
19340;HTU21D;9804;52.350;6.684;2023-02-26T00:12:25;3.87;-6.00
19340;HTU21D;9804;52.350;6.684;2023-02-26T00:14:51;3.87;-6.00
19340;HTU21D;9804;52.350;6.684;2023-02-26T00:19:51;3.91;-6.00
19340;HTU21D;9804;52.350;6.684;2023-02-26T00:22:17;3.67;-6.00
19340;HTU21D;9804;52.350;6.684;2023-02-26T00:24:42;3.88;-6.00
19340;HTU21D;9804;52.350;6.684;2023-02-26T00:27:10;3.65;-6.00
19340;HTU21D;9804;52.350;6.684;2023-02-26T00:29:36;3.54;-6.00
19340;HTU21D;9804;52.350;6.684;2023-02-26T00:32:01;3.52;-6.00
19340;HTU21D;9804;52.350;6.684;2023-02-26T00:34:27;3.49;-6.00
19340;HTU21D;9804;52.350;6.684;2023-02-26T00:39:47;3.46;-6.00
19340;HTU21D;9804;52.350;6.684;2023-02-26T00:42:14;3.18;-6.00
19340;HTU21D;9804;52.350;6.684;2023-02-26T00:44:40;3.35;-6.00
19340;HTU21D;9804;52.350;6.684;2023-02-26T00:52:47;3.23;-6.00
19340;HTU21D;9804;52.350;6.684;2023-02-26T00:55:14;3.12;-6.00
19340;HTU21D;9804;52.350;6.684;2023-02-26T00:57:39;2.78;-6.00
19340;HTU21D;9804;52.350;6.684;2023-02-26T01:00:05;2.95;-6.00
19340;HTU21D;9804;52.350;6.684;2023-02-26T01:02:33;2.96;-6.00
19340;HTU21D;9804;52.350;6.684;2023-02-26T01:04:59;3.01;-6.00
19340;HTU21D;9804;52.350;6.684;2023-02-26T01:07:27;3.15;-6.00
19340;HTU21D;9804;52.350;6.684;2023-02-26T01:09:53;3.05;-6.00
19340;HTU21D;9804;52.350;6.684;2023-02-26T01:12:19;2.98;-6.00
19340;HTU21D;9804;52.350;6.684;2023-02-26T01:14:45;2.83;-6.00
19340;HTU21D;9804;52.350;6.684;2023-02-26T01:17:26;2.56;-6.00
19340;HTU21D;9804;52.350;6.684;2023-02-26T01:20:01;2.84;-6.00
19340;HTU21D;9804;52.350;6.684;2023-02-26T01:22:39;2.64;-6.00
19340;HTU21D;9804;52.350;6.684;2023-02-26T01:25:09;2.56;-6.00
19340;HTU21D;9804;52.350;6.684;2023-02-26T01:27:36;2.50;-6.00
19340;HTU21D;9804;52.350;6.684;2023-02-26T01:30:03;2.62;-6.00
19340;HTU21D;9804;52.350;6.684;2023-02-26T01:32:48;2.72;-6.00
19340;HTU21D;9804;52.350;6.684;2023-02-26T01:35:50;2.53;-6.00
19340;HTU21D;9804;52.350;6.684;2023-02-26T01:38:26;2.42;-6.00
19340;HTU21D;9804;52.350;6.684;2023-02-26T01:46:37;2.41;-6.00
19340;HTU21D;9804;52.350;6.684;2023-02-26T01:49:04;2.45;-6.00
19340;HTU21D;9804;52.350;6.684;2023-02-26T01:51:49;2.34;-6.00
19340;HTU21D;9804;52.350;6.684;2023-02-26T01:54:20;2.34;-6.00
19340;HTU21D;9804;52.350;6.684;2023-02-26T01:56:49;2.24;-6.00
19340;HTU21D;9804;52.350;6.684;2023-02-26T01:59:18;2.37;-6.00
19340;HTU21D;9804;52.350;6.684;2023-02-26T02:01:53;2.24;-6.00
19340;HTU21D;9804;52.350;6.684;2023-02-26T02:04:19;2.36;-6.00
19340;HTU21D;9804;52.350;6.684;2023-02-26T02:06:45;2.41;-6.00
19340;HTU21D;9804;52.350;6.684;2023-02-26T02:09:11;2.37;-6.00
19340;HTU21D;9804;52.350;6.684;2023-02-26T02:17:17;2.14;-6.00
19340;HTU21D;9804;52.350;6.684;2023-02-26T02:22:57;2.00;-6.00
19340;HTU21D;9804;52.350;6.684;2023-02-26T02:28:39;2.24;-6.00
19340;HTU21D;9804;52.350;6.684;2023-02-26T02:31:11;2.08;-6.00
19340;HTU21D;9804;52.350;6.684;2023-02-26T02:34:02;2.15;-6.00
19340;HTU21D;9804;52.350;6.684;2023-02-26T02:36:46;2.16;-6.00
19340;HTU21D;9804;52.350;6.684;2023-02-26T02:39:18;2.19;-6.00
19340;HTU21D;9804;52.350;6.684;2023-02-26T02:41:50;2.17;-6.00
19340;HTU21D;9804;52.350;6.684;2023-02-26T02:44:18;2.09;-6.00
19340;HTU21D;9804;52.350;6.684;2023-02-26T02:46:49;2.20;-6.00
19340;HTU21D;9804;52.350;6.684;2023-02-26T02:49:21;2.15;-6.00
19340;HTU21D;9804;52.350;6.684;2023-02-26T02:51:54;1.99;-6.00
19340;HTU21D;9804;52.350;6.684;2023-02-26T02:54:39;2.09;-6.00
19340;HTU21D;9804;52.350;6.684;2023-02-26T02:57:18;2.08;-6.00
19340;HTU21D;9804;52.350;6.684;2023-02-26T02:59:48;2.02;-6.00
19340;HTU21D;9804;52.350;6.684;2023-02-26T03:04:53;2.13;-6.00
19340;HTU21D;9804;52.350;6.684;2023-02-26T03:07:18;2.13;-6.00
19340;HTU21D;9804;52.350;6.684;2023-02-26T03:09:43;1.88;-6.00
19340;HTU21D;9804;52.350;6.684;2023-02-26T03:12:09;1.83;-6.00
19340;HTU21D;9804;52.350;6.684;2023-02-26T03:14:35;1.87;-6.00
19340;HTU21D;9804;52.350;6.684;2023-02-26T03:17:26;2.06;-6.00
19340;HTU21D;9804;52.350;6.684;2023-02-26T03:25:25;1.83;-6.00
19340;HTU21D;9804;52.350;6.684;2023-02-26T03:27:54;1.64;-6.00
19340;HTU21D;9804;52.350;6.684;2023-02-26T03:30:29;1.53;-6.00
19340;HTU21D;9804;52.350;6.684;2023-02-26T03:33:15;1.75;-6.00
19340;HTU21D;9804;52.350;6.684;2023-02-26T03:35:50;1.72;-6.00
19340;HTU21D;9804;52.350;6.684;2023-02-26T03:41:08;1.65;-6.00
19340;HTU21D;9804;52.350;6.684;2023-02-26T03:43:57;1.72;-6.00
19340;HTU21D;9804;52.350;6.684;2023-02-26T03:46:39;1.66;-6.00
19340;HTU21D;9804;52.350;6.684;2023-02-26T03:49:09;1.58;-6.00
19340;HTU21D;9804;52.350;6.684;2023-02-26T03:51:37;1.79;-6.00
19340;HTU21D;9804;52.350;6.684;2023-02-26T03:54:18;1.68;-6.00
19340;HTU21D;9804;52.350;6.684;2023-02-26T03:56:46;1.69;-6.00
19340;HTU21D;9804;52.350;6.684;2023-02-26T03:59:13;1.67;-6.00
19340;HTU21D;9804;52.350;6.684;2023-02-26T04:01:43;1.53;-6.00
19340;HTU21D;9804;52.350;6.684;2023-02-26T04:04:15;1.65;-6.00
19340;HTU21D;9804;52.350;6.684;2023-02-26T04:06:42;1.61;-6.00
19340;HTU21D;9804;52.350;6.684;2023-02-26T04:09:08;1.53;-6.00
19340;HTU21D;9804;52.350;6.684;2023-02-26T04:11:34;1.66;-6.00
19340;HTU21D;9804;52.350;6.684;2023-02-26T04:14:00;1.67;-6.00
19340;HTU21D;9804;52.350;6.684;2023-02-26T04:16:26;1.54;-6.00
19340;HTU21D;9804;52.350;6.684;2023-02-26T04:18:51;1.68;-6.00
19340;HTU21D;9804;52.350;6.684;2023-02-26T04:21:19;1.45;-6.00
19340;HTU21D;9804;52.350;6.684;2023-02-26T04:23:45;1.53;-6.00
19340;HTU21D;9804;52.350;6.684;2023-02-26T04:26:11;1.51;-6.00
19340;HTU21D;9804;52.350;6.684;2023-02-26T04:28:38;1.55;-6.00
19340;HTU21D;9804;52.350;6.684;2023-02-26T04:31:04;1.36;-6.00
19340;HTU21D;9804;52.350;6.684;2023-02-26T04:33:31;1.40;-6.00
19340;HTU21D;9804;52.350;6.684;2023-02-26T04:35:57;1.40;-6.00
19340;HTU21D;9804;52.350;6.684;2023-02-26T04:38:23;1.52;-6.00
19340;HTU21D;9804;52.350;6.684;2023-02-26T04:40:49;1.52;-6.00
19340;HTU21D;9804;52.350;6.684;2023-02-26T04:43:15;1.52;-6.00
19340;HTU21D;9804;52.350;6.684;2023-02-26T04:45:40;1.49;-6.00
19340;HTU21D;9804;52.350;6.684;2023-02-26T04:48:05;1.55;-6.00
19340;HTU21D;9804;52.350;6.684;2023-02-26T04:50:31;1.38;-6.00
19340;HTU21D;9804;52.350;6.684;2023-02-26T04:52:56;1.39;-6.00
19340;HTU21D;9804;52.350;6.684;2023-02-26T04:55:21;1.37;-6.00
19340;HTU21D;9804;52.350;6.684;2023-02-26T04:57:47;1.45;-6.00
19340;HTU21D;9804;52.350;6.684;2023-02-26T05:00:13;1.58;-6.00
19340;HTU21D;9804;52.350;6.684;2023-02-26T05:02:39;1.47;-6.00
19340;HTU21D;9804;52.350;6.684;2023-02-26T05:05:05;1.58;-6.00
19340;HTU21D;9804;52.350;6.684;2023-02-26T05:07:31;1.50;-6.00
19340;HTU21D;9804;52.350;6.684;2023-02-26T05:09:56;1.39;-6.00
19340;HTU21D;9804;52.350;6.684;2023-02-26T05:12:22;1.49;-6.00
19340;HTU21D;9804;52.350;6.684;2023-02-26T05:14:47;1.42;-6.00
19340;HTU21D;9804;52.350;6.684;2023-02-26T05:17:13;1.48;-6.00
19340;HTU21D;9804;52.350;6.684;2023-02-26T05:19:38;1.37;-6.00
19340;HTU21D;9804;52.350;6.684;2023-02-26T05:22:03;1.47;-6.00
19340;HTU21D;9804;52.350;6.684;2023-02-26T05:24:29;1.40;-6.00
19340;HTU21D;9804;52.350;6.684;2023-02-26T05:26:54;1.53;-6.00
19340;HTU21D;9804;52.350;6.684;2023-02-26T05:29:19;1.64;-6.00
19340;HTU21D;9804;52.350;6.684;2023-02-26T05:31:45;1.51;-6.00
19340;HTU21D;9804;52.350;6.684;2023-02-26T05:34:10;1.40;-6.00
19340;HTU21D;9804;52.350;6.684;2023-02-26T05:36:36;1.32;-6.00
19340;HTU21D;9804;52.350;6.684;2023-02-26T05:39:01;1.22;-6.00
19340;HTU21D;9804;52.350;6.684;2023-02-26T05:41:27;1.07;-6.00
19340;HTU21D;9804;52.350;6.684;2023-02-26T05:43:52;1.12;-6.00
19340;HTU21D;9804;52.350;6.684;2023-02-26T05:46:17;1.06;-6.00
19340;HTU21D;9804;52.350;6.684;2023-02-26T05:48:43;1.07;-6.00
19340;HTU21D;9804;52.350;6.684;2023-02-26T05:51:08;1.05;-6.00
19340;HTU21D;9804;52.350;6.684;2023-02-26T05:53:34;1.03;-6.00
19340;HTU21D;9804;52.350;6.684;2023-02-26T05:55:59;1.17;-6.00
19340;HTU21D;9804;52.350;6.684;2023-02-26T05:58:25;1.16;-6.00
19340;HTU21D;9804;52.350;6.684;2023-02-26T06:00:50;1.19;-6.00
19340;HTU21D;9804;52.350;6.684;2023-02-26T06:03:15;1.08;-6.00
19340;HTU21D;9804;52.350;6.684;2023-02-26T06:05:41;1.11;-6.00
19340;HTU21D;9804;52.350;6.684;2023-02-26T06:08:06;1.11;-6.00
19340;HTU21D;9804;52.350;6.684;2023-02-26T06:10:32;1.11;-6.00
19340;HTU21D;9804;52.350;6.684;2023-02-26T06:12:58;1.27;-6.00
19340;HTU21D;9804;52.350;6.684;2023-02-26T06:15:23;1.18;-6.00
19340;HTU21D;9804;52.350;6.684;2023-02-26T06:17:48;1.31;-6.00
19340;HTU21D;9804;52.350;6.684;2023-02-26T06:20:14;1.23;-6.00
19340;HTU21D;9804;52.350;6.684;2023-02-26T06:22:39;1.23;-6.00
19340;HTU21D;9804;52.350;6.684;2023-02-26T06:25:05;1.09;-6.00
19340;HTU21D;9804;52.350;6.684;2023-02-26T06:27:30;1.20;-6.00
19340;HTU21D;9804;52.350;6.684;2023-02-26T06:29:56;1.24;-6.00
19340;HTU21D;9804;52.350;6.684;2023-02-26T06:32:21;1.18;-6.00
19340;HTU21D;9804;52.350;6.684;2023-02-26T06:34:47;1.06;-6.00
19340;HTU21D;9804;52.350;6.684;2023-02-26T06:37:12;0.95;-6.00
19340;HTU21D;9804;52.350;6.684;2023-02-26T06:39:38;0.95;-6.00
19340;HTU21D;9804;52.350;6.684;2023-02-26T06:42:03;0.80;-6.00
19340;HTU21D;9804;52.350;6.684;2023-02-26T06:44:29;0.84;-6.00
19340;HTU21D;9804;52.350;6.684;2023-02-26T06:46:54;0.88;-6.00
19340;HTU21D;9804;52.350;6.684;2023-02-26T06:49:20;0.87;-6.00
19340;HTU21D;9804;52.350;6.684;2023-02-26T06:51:45;1.05;-6.00
19340;HTU21D;9804;52.350;6.684;2023-02-26T06:54:10;1.04;-6.00
19340;HTU21D;9804;52.350;6.684;2023-02-26T06:56:36;1.16;-6.00
19340;HTU21D;9804;52.350;6.684;2023-02-26T06:59:01;1.19;-6.00
19340;HTU21D;9804;52.350;6.684;2023-02-26T07:01:26;1.20;-6.00
19340;HTU21D;9804;52.350;6.684;2023-02-26T07:03:52;1.33;-6.00
19340;HTU21D;9804;52.350;6.684;2023-02-26T07:06:17;1.36;-6.00
19340;HTU21D;9804;52.350;6.684;2023-02-26T07:08:43;1.49;-6.00
19340;HTU21D;9804;52.350;6.684;2023-02-26T07:11:08;1.47;-6.00
19340;HTU21D;9804;52.350;6.684;2023-02-26T07:13:35;1.52;-6.00
19340;HTU21D;9804;52.350;6.684;2023-02-26T07:16:01;1.63;-6.00
19340;HTU21D;9804;52.350;6.684;2023-02-26T07:18:27;1.73;-6.00
19340;HTU21D;9804;52.350;6.684;2023-02-26T07:20:52;1.91;-6.00
19340;HTU21D;9804;52.350;6.684;2023-02-26T07:23:17;1.70;-6.00
19340;HTU21D;9804;52.350;6.684;2023-02-26T07:25:43;1.60;-6.00
19340;HTU21D;9804;52.350;6.684;2023-02-26T07:28:08;1.71;-6.00
19340;HTU21D;9804;52.350;6.684;2023-02-26T07:30:34;1.93;-6.00
19340;HTU21D;9804;52.350;6.684;2023-02-26T07:32:59;2.03;-6.00
19340;HTU21D;9804;52.350;6.684;2023-02-26T07:35:25;2.02;-6.00
19340;HTU21D;9804;52.350;6.684;2023-02-26T07:37:50;2.13;-6.00
19340;HTU21D;9804;52.350;6.684;2023-02-26T07:40:16;2.05;-6.00
19340;HTU21D;9804;52.350;6.684;2023-02-26T07:42:42;2.00;-6.00
19340;HTU21D;9804;52.350;6.684;2023-02-26T07:45:08;2.22;-6.00
19340;HTU21D;9804;52.350;6.684;2023-02-26T07:47:33;2.24;-6.00
19340;HTU21D;9804;52.350;6.684;2023-02-26T07:49:59;2.24;-6.00
19340;HTU21D;9804;52.350;6.684;2023-02-26T07:52:25;2.30;-6.00
19340;HTU21D;9804;52.350;6.684;2023-02-26T07:54:50;2.45;-6.00
19340;HTU21D;9804;52.350;6.684;2023-02-26T07:57:17;2.40;-6.00
19340;HTU21D;9804;52.350;6.684;2023-02-26T07:59:43;2.61;-6.00
19340;HTU21D;9804;52.350;6.684;2023-02-26T08:02:09;2.45;-6.00
19340;HTU21D;9804;52.350;6.684;2023-02-26T08:04:35;2.64;-6.00
19340;HTU21D;9804;52.350;6.684;2023-02-26T08:07:00;2.71;-6.00
19340;HTU21D;9804;52.350;6.684;2023-02-26T08:09:26;2.75;-6.00
19340;HTU21D;9804;52.350;6.684;2023-02-26T08:11:51;2.84;-6.00
19340;HTU21D;9804;52.350;6.684;2023-02-26T08:14:17;2.86;-6.00
19340;HTU21D;9804;52.350;6.684;2023-02-26T08:16:42;2.86;-6.00
19340;HTU21D;9804;52.350;6.684;2023-02-26T08:19:07;2.95;-6.00
19340;HTU21D;9804;52.350;6.684;2023-02-26T08:21:33;2.90;-6.00
19340;HTU21D;9804;52.350;6.684;2023-02-26T08:23:59;3.24;-6.00
19340;HTU21D;9804;52.350;6.684;2023-02-26T08:26:25;3.16;-6.00
19340;HTU21D;9804;52.350;6.684;2023-02-26T08:28:50;3.10;-6.00
19340;HTU21D;9804;52.350;6.684;2023-02-26T08:31:15;3.40;-6.00
19340;HTU21D;9804;52.350;6.684;2023-02-26T08:33:41;3.39;-6.00
19340;HTU21D;9804;52.350;6.684;2023-02-26T08:36:07;3.31;-6.00
19340;HTU21D;9804;52.350;6.684;2023-02-26T08:38:33;3.31;-6.00
19340;HTU21D;9804;52.350;6.684;2023-02-26T08:40:58;3.52;-6.00
19340;HTU21D;9804;52.350;6.684;2023-02-26T08:43:24;3.73;-6.00
19340;HTU21D;9804;52.350;6.684;2023-02-26T08:45:54;3.69;-6.00
19340;HTU21D;9804;52.350;6.684;2023-02-26T08:48:20;3.86;-6.00
19340;HTU21D;9804;52.350;6.684;2023-02-26T08:50:46;4.05;-6.00
19340;HTU21D;9804;52.350;6.684;2023-02-26T08:53:11;3.92;-6.00
19340;HTU21D;9804;52.350;6.684;2023-02-26T08:55:37;4.21;-6.00
19340;HTU21D;9804;52.350;6.684;2023-02-26T08:58:02;4.34;-6.00
19340;HTU21D;9804;52.350;6.684;2023-02-26T09:00:28;4.24;-6.00
19340;HTU21D;9804;52.350;6.684;2023-02-26T09:02:54;4.23;-6.00
19340;HTU21D;9804;52.350;6.684;2023-02-26T09:05:19;4.57;-6.00
19340;HTU21D;9804;52.350;6.684;2023-02-26T09:07:45;4.58;-6.00
19340;HTU21D;9804;52.350;6.684;2023-02-26T09:10:11;4.69;-6.00
19340;HTU21D;9804;52.350;6.684;2023-02-26T09:12:36;4.63;-6.00
19340;HTU21D;9804;52.350;6.684;2023-02-26T09:15:03;4.78;-6.00
19340;HTU21D;9804;52.350;6.684;2023-02-26T09:17:29;4.90;-6.00
19340;HTU21D;9804;52.350;6.684;2023-02-26T09:19:55;5.12;-6.00
19340;HTU21D;9804;52.350;6.684;2023-02-26T09:22:20;5.02;-6.00
19340;HTU21D;9804;52.350;6.684;2023-02-26T09:24:45;5.04;-6.00
19340;HTU21D;9804;52.350;6.684;2023-02-26T09:27:11;5.27;-6.00
19340;HTU21D;9804;52.350;6.684;2023-02-26T09:29:36;5.19;-6.00
19340;HTU21D;9804;52.350;6.684;2023-02-26T09:32:02;5.23;-6.00
19340;HTU21D;9804;52.350;6.684;2023-02-26T09:34:33;5.32;-6.00
19340;HTU21D;9804;52.350;6.684;2023-02-26T09:36:58;5.41;-6.00
19340;HTU21D;9804;52.350;6.684;2023-02-26T09:39:23;5.43;-6.00
19340;HTU21D;9804;52.350;6.684;2023-02-26T09:41:52;5.62;-6.00
19340;HTU21D;9804;52.350;6.684;2023-02-26T09:44:19;5.47;-6.00
19340;HTU21D;9804;52.350;6.684;2023-02-26T09:47:01;5.50;-6.00
19340;HTU21D;9804;52.350;6.684;2023-02-26T09:49:48;5.56;-6.00
19340;HTU21D;9804;52.350;6.684;2023-02-26T09:54:57;5.72;-6.00
19340;HTU21D;9804;52.350;6.684;2023-02-26T09:57:32;5.79;-6.00
19340;HTU21D;9804;52.350;6.684;2023-02-26T09:59:59;5.68;-6.00
19340;HTU21D;9804;52.350;6.684;2023-02-26T10:02:32;5.90;-6.00
19340;HTU21D;9804;52.350;6.684;2023-02-26T10:05:25;6.07;-6.00
19340;HTU21D;9804;52.350;6.684;2023-02-26T10:08:11;6.10;-6.00
19340;HTU21D;9804;52.350;6.684;2023-02-26T10:11:03;5.89;-6.00
19340;HTU21D;9804;52.350;6.684;2023-02-26T10:15:56;6.00;-6.00
19340;HTU21D;9804;52.350;6.684;2023-02-26T10:18:29;6.08;-6.00
19340;HTU21D;9804;52.350;6.684;2023-02-26T10:21:34;6.39;-6.00
19340;HTU21D;9804;52.350;6.684;2023-02-26T10:23:56;6.17;-6.00
19340;HTU21D;9804;52.350;6.684;2023-02-26T10:26:25;6.38;-6.00
19340;HTU21D;9804;52.350;6.684;2023-02-26T10:29:06;6.29;-6.00
19340;HTU21D;9804;52.350;6.684;2023-02-26T10:31:59;6.40;-6.00
19340;HTU21D;9804;52.350;6.684;2023-02-26T10:34:56;6.24;-6.00
19340;HTU21D;9804;52.350;6.684;2023-02-26T10:37:46;6.56;-6.00
19340;HTU21D;9804;52.350;6.684;2023-02-26T10:40:28;6.78;-6.00
19340;HTU21D;9804;52.350;6.684;2023-02-26T10:43:10;6.31;-6.00
19340;HTU21D;9804;52.350;6.684;2023-02-26T10:51:35;6.57;-6.00
19340;HTU21D;9804;52.350;6.684;2023-02-26T10:56:37;6.91;-6.00
19340;HTU21D;9804;52.350;6.684;2023-02-26T10:59:02;7.02;-6.00
19340;HTU21D;9804;52.350;6.684;2023-02-26T11:01:29;7.53;-6.00
19340;HTU21D;9804;52.350;6.684;2023-02-26T11:04:00;7.03;-6.00
19340;HTU21D;9804;52.350;6.684;2023-02-26T11:06:36;7.32;-6.00
19340;HTU21D;9804;52.350;6.684;2023-02-26T11:09:06;7.19;-6.00
19340;HTU21D;9804;52.350;6.684;2023-02-26T11:11:45;7.05;-6.00
19340;HTU21D;9804;52.350;6.684;2023-02-26T11:14:11;7.09;-6.00
19340;HTU21D;9804;52.350;6.684;2023-02-26T11:16:49;7.13;-6.00
19340;HTU21D;9804;52.350;6.684;2023-02-26T11:19:16;7.37;-6.00
19340;HTU21D;9804;52.350;6.684;2023-02-26T11:21:44;7.33;-6.00
19340;HTU21D;9804;52.350;6.684;2023-02-26T11:24:16;7.17;-6.00
19340;HTU21D;9804;52.350;6.684;2023-02-26T11:26:48;7.20;-6.00
19340;HTU21D;9804;52.350;6.684;2023-02-26T11:29:18;7.39;-6.00
19340;HTU21D;9804;52.350;6.684;2023-02-26T11:31:47;7.31;-6.00
19340;HTU21D;9804;52.350;6.684;2023-02-26T11:34:13;7.41;-6.00
19340;HTU21D;9804;52.350;6.684;2023-02-26T11:36:41;7.49;-6.00
19340;HTU21D;9804;52.350;6.684;2023-02-26T11:39:15;7.02;-6.00
19340;HTU21D;9804;52.350;6.684;2023-02-26T11:41:44;7.14;-6.00
19340;HTU21D;9804;52.350;6.684;2023-02-26T11:44:13;7.20;-6.00
19340;HTU21D;9804;52.350;6.684;2023-02-26T11:47:02;6.91;-6.00
19340;HTU21D;9804;52.350;6.684;2023-02-26T11:49:28;7.10;-6.00
19340;HTU21D;9804;52.350;6.684;2023-02-26T11:54:29;7.35;-6.00
19340;HTU21D;9804;52.350;6.684;2023-02-26T11:57:02;7.40;-6.00
19340;HTU21D;9804;52.350;6.684;2023-02-26T11:59:31;7.55;-6.00
19340;HTU21D;9804;52.350;6.684;2023-02-26T12:02:02;7.59;-6.00
19340;HTU21D;9804;52.350;6.684;2023-02-26T12:04:30;7.85;-6.00
19340;HTU21D;9804;52.350;6.684;2023-02-26T12:06:55;7.75;-6.00
19340;HTU21D;9804;52.350;6.684;2023-02-26T12:09:23;7.43;-6.00
19340;HTU21D;9804;52.350;6.684;2023-02-26T12:20:06;7.64;-6.00
19340;HTU21D;9804;52.350;6.684;2023-02-26T12:22:55;7.89;-6.00
19340;HTU21D;9804;52.350;6.684;2023-02-26T12:31:46;8.14;-6.00
19340;HTU21D;9804;52.350;6.684;2023-02-26T12:34:27;7.98;-6.00
19340;HTU21D;9804;52.350;6.684;2023-02-26T12:39:43;8.26;-6.00
19340;HTU21D;9804;52.350;6.684;2023-02-26T12:42:22;8.06;-6.00
19340;HTU21D;9804;52.350;6.684;2023-02-26T12:45:27;8.34;-6.00
19340;HTU21D;9804;52.350;6.684;2023-02-26T12:48:15;8.31;-6.00
19340;HTU21D;9804;52.350;6.684;2023-02-26T13:02:57;8.34;-6.00
19340;HTU21D;9804;52.350;6.684;2023-02-26T13:11:24;8.27;-6.00
19340;HTU21D;9804;52.350;6.684;2023-02-26T13:21:57;8.20;-6.00
19340;HTU21D;9804;52.350;6.684;2023-02-26T13:24:43;8.38;-6.00
19340;HTU21D;9804;52.350;6.684;2023-02-26T13:27:11;8.51;-6.00
19340;HTU21D;9804;52.350;6.684;2023-02-26T13:29:45;8.57;-6.00
19340;HTU21D;9804;52.350;6.684;2023-02-26T13:32:21;8.53;-6.00
19340;HTU21D;9804;52.350;6.684;2023-02-26T13:35:01;8.71;-6.00
19340;HTU21D;9804;52.350;6.684;2023-02-26T13:37:32;8.88;-6.00
19340;HTU21D;9804;52.350;6.684;2023-02-26T13:43:14;8.41;-6.00
19340;HTU21D;9804;52.350;6.684;2023-02-26T13:46:07;8.49;-6.00
19340;HTU21D;9804;52.350;6.684;2023-02-26T13:53:59;8.48;-6.00
19340;HTU21D;9804;52.350;6.684;2023-02-26T13:56:47;8.32;-6.00
19340;HTU21D;9804;52.350;6.684;2023-02-26T14:01:55;8.32;-6.00
19340;HTU21D;9804;52.350;6.684;2023-02-26T14:07:03;8.29;-6.00
19340;HTU21D;9804;52.350;6.684;2023-02-26T14:12:32;8.20;-6.00
19340;HTU21D;9804;52.350;6.684;2023-02-26T14:20:21;8.33;-6.00
19340;HTU21D;9804;52.350;6.684;2023-02-26T14:25:37;8.38;-6.00
19340;HTU21D;9804;52.350;6.684;2023-02-26T14:31:13;8.87;-6.00
19340;HTU21D;9804;52.350;6.684;2023-02-26T14:33:45;8.43;-6.00
19340;HTU21D;9804;52.350;6.684;2023-02-26T14:36:38;8.64;-6.00
19340;HTU21D;9804;52.350;6.684;2023-02-26T14:39:21;8.70;-6.00
19340;HTU21D;9804;52.350;6.684;2023-02-26T14:41:47;8.41;-6.00
19340;HTU21D;9804;52.350;6.684;2023-02-26T14:44:19;8.28;-6.00
19340;HTU21D;9804;52.350;6.684;2023-02-26T14:46:47;8.49;-6.00
19340;HTU21D;9804;52.350;6.684;2023-02-26T14:49:23;8.59;-6.00
19340;HTU21D;9804;52.350;6.684;2023-02-26T15:03:19;8.44;-6.00
19340;HTU21D;9804;52.350;6.684;2023-02-26T15:17:39;8.29;-6.00
19340;HTU21D;9804;52.350;6.684;2023-02-26T15:20:27;8.42;-6.00
19340;HTU21D;9804;52.350;6.684;2023-02-26T15:25:35;8.17;-6.00
19340;HTU21D;9804;52.350;6.684;2023-02-26T15:28:03;8.50;-6.00
19340;HTU21D;9804;52.350;6.684;2023-02-26T15:30:30;8.23;-6.00
19340;HTU21D;9804;52.350;6.684;2023-02-26T15:32:58;8.38;-6.00
19340;HTU21D;9804;52.350;6.684;2023-02-26T15:35:26;8.45;-6.00
19340;HTU21D;9804;52.350;6.684;2023-02-26T15:37:55;8.55;-6.00
19340;HTU21D;9804;52.350;6.684;2023-02-26T15:40:23;8.59;-6.00
19340;HTU21D;9804;52.350;6.684;2023-02-26T15:42:52;8.58;-6.00
19340;HTU21D;9804;52.350;6.684;2023-02-26T15:45:25;8.38;-6.00
19340;HTU21D;9804;52.350;6.684;2023-02-26T15:47:55;8.48;-6.00
19340;HTU21D;9804;52.350;6.684;2023-02-26T15:50:26;8.60;-6.00
19340;HTU21D;9804;52.350;6.684;2023-02-26T15:52:57;8.42;-6.00
19340;HTU21D;9804;52.350;6.684;2023-02-26T15:55:24;8.48;-6.00
19340;HTU21D;9804;52.350;6.684;2023-02-26T15:57:51;8.23;-6.00
19340;HTU21D;9804;52.350;6.684;2023-02-26T16:00:20;8.31;-6.00
19340;HTU21D;9804;52.350;6.684;2023-02-26T16:02:53;8.28;-6.00
19340;HTU21D;9804;52.350;6.684;2023-02-26T16:05:22;8.05;-6.00
19340;HTU21D;9804;52.350;6.684;2023-02-26T16:07:47;7.93;-6.00
19340;HTU21D;9804;52.350;6.684;2023-02-26T16:10:27;7.79;-6.00
19340;HTU21D;9804;52.350;6.684;2023-02-26T16:12:53;7.65;-6.00
19340;HTU21D;9804;52.350;6.684;2023-02-26T16:15:30;8.01;-6.00
19340;HTU21D;9804;52.350;6.684;2023-02-26T16:17:57;8.12;-6.00
19340;HTU21D;9804;52.350;6.684;2023-02-26T16:20:26;7.90;-6.00
19340;HTU21D;9804;52.350;6.684;2023-02-26T16:22:56;8.06;-6.00
19340;HTU21D;9804;52.350;6.684;2023-02-26T16:25:27;8.00;-6.00
19340;HTU21D;9804;52.350;6.684;2023-02-26T16:27:58;8.05;-6.00
19340;HTU21D;9804;52.350;6.684;2023-02-26T16:30:37;7.81;-6.00
19340;HTU21D;9804;52.350;6.684;2023-02-26T16:33:05;7.88;-6.00
19340;HTU21D;9804;52.350;6.684;2023-02-26T16:35:36;7.96;-6.00
19340;HTU21D;9804;52.350;6.684;2023-02-26T16:38:22;8.15;-6.00
19340;HTU21D;9804;52.350;6.684;2023-02-26T16:40:59;8.14;-6.00
19340;HTU21D;9804;52.350;6.684;2023-02-26T16:43:53;8.14;-6.00
19340;HTU21D;9804;52.350;6.684;2023-02-26T16:49:08;7.56;-6.00
19340;HTU21D;9804;52.350;6.684;2023-02-26T16:51:37;7.39;-6.00
19340;HTU21D;9804;52.350;6.684;2023-02-26T16:54:07;7.35;-6.00
19340;HTU21D;9804;52.350;6.684;2023-02-26T16:56:37;7.08;-6.00
19340;HTU21D;9804;52.350;6.684;2023-02-26T16:59:19;6.91;-6.00
19340;HTU21D;9804;52.350;6.684;2023-02-26T17:01:54;6.80;-6.00
19340;HTU21D;9804;52.350;6.684;2023-02-26T17:04:23;6.75;-6.00
19340;HTU21D;9804;52.350;6.684;2023-02-26T17:06:50;6.91;-6.00
19340;HTU21D;9804;52.350;6.684;2023-02-26T17:09:49;6.83;-6.00
19340;HTU21D;9804;52.350;6.684;2023-02-26T17:12:20;6.65;-6.00
19340;HTU21D;9804;52.350;6.684;2023-02-26T17:15:11;6.57;-6.00
19340;HTU21D;9804;52.350;6.684;2023-02-26T17:17:36;6.52;-6.00
19340;HTU21D;9804;52.350;6.684;2023-02-26T17:20:02;6.45;-6.00
19340;HTU21D;9804;52.350;6.684;2023-02-26T17:22:27;6.42;-6.00
19340;HTU21D;9804;52.350;6.684;2023-02-26T17:24:53;6.36;-6.00
19340;HTU21D;9804;52.350;6.684;2023-02-26T17:27:31;6.33;-6.00
19340;HTU21D;9804;52.350;6.684;2023-02-26T17:29:59;6.34;-6.00
19340;HTU21D;9804;52.350;6.684;2023-02-26T17:32:26;6.30;-6.00
19340;HTU21D;9804;52.350;6.684;2023-02-26T17:34:52;6.23;-6.00
19340;HTU21D;9804;52.350;6.684;2023-02-26T17:37:18;6.09;-6.00
19340;HTU21D;9804;52.350;6.684;2023-02-26T17:39:44;6.23;-6.00
19340;HTU21D;9804;52.350;6.684;2023-02-26T17:42:12;5.95;-6.00
19340;HTU21D;9804;52.350;6.684;2023-02-26T17:44:37;5.95;-6.00
19340;HTU21D;9804;52.350;6.684;2023-02-26T17:47:03;5.97;-6.00
19340;HTU21D;9804;52.350;6.684;2023-02-26T17:49:28;5.99;-6.00
19340;HTU21D;9804;52.350;6.684;2023-02-26T17:51:54;5.80;-6.00
19340;HTU21D;9804;52.350;6.684;2023-02-26T17:54:19;5.95;-6.00
19340;HTU21D;9804;52.350;6.684;2023-02-26T17:56:44;5.94;-6.00
19340;HTU21D;9804;52.350;6.684;2023-02-26T17:59:10;5.66;-6.00
19340;HTU21D;9804;52.350;6.684;2023-02-26T18:01:37;5.66;-6.00
19340;HTU21D;9804;52.350;6.684;2023-02-26T18:04:03;5.79;-6.00
19340;HTU21D;9804;52.350;6.684;2023-02-26T18:06:32;5.63;-6.00
19340;HTU21D;9804;52.350;6.684;2023-02-26T18:08:58;5.61;-6.00
19340;HTU21D;9804;52.350;6.684;2023-02-26T18:11:24;5.65;-6.00
19340;HTU21D;9804;52.350;6.684;2023-02-26T18:13:50;5.59;-6.00
19340;HTU21D;9804;52.350;6.684;2023-02-26T18:16:19;5.64;-6.00
19340;HTU21D;9804;52.350;6.684;2023-02-26T18:18:45;5.62;-6.00
19340;HTU21D;9804;52.350;6.684;2023-02-26T18:21:10;5.48;-6.00
19340;HTU21D;9804;52.350;6.684;2023-02-26T18:23:35;5.43;-6.00
19340;HTU21D;9804;52.350;6.684;2023-02-26T18:26:01;5.45;-6.00
19340;HTU21D;9804;52.350;6.684;2023-02-26T18:28:28;5.52;-6.00
19340;HTU21D;9804;52.350;6.684;2023-02-26T18:30:55;5.46;-6.00
19340;HTU21D;9804;52.350;6.684;2023-02-26T18:33:21;5.41;-6.00
19340;HTU21D;9804;52.350;6.684;2023-02-26T18:35:49;5.24;-6.00